createdAt,value
2017-09-04T00:12:22.713Z,38.88
2017-09-04T00:32:23.158Z,35.33
2017-09-04T00:52:23.620Z,46.52
2017-09-04T01:12:24.085Z,46.68
2017-09-04T01:32:24.519Z,56.15
2017-09-04T01:52:25.006Z,66.68
2017-09-04T02:12:25.464Z,69.77
2017-09-04T02:32:25.945Z,82.80
2017-09-04T02:52:26.308Z,85.34
2017-09-04T03:12:26.733Z,81.12
2017-09-04T03:32:27.344Z,72.20
2017-09-04T03:52:27.835Z,35.60
2017-09-04T04:12:28.328Z,90.76
2017-09-04T04:31:44.530Z,58.41
2017-09-04T04:51:44.814Z,90.49
2017-09-04T05:11:45.318Z,61.27
2017-09-04T05:31:45.775Z,65.71
2017-09-04T05:51:46.194Z,10.50
2017-09-04T06:11:46.753Z,0.69
2017-09-04T06:31:47.206Z,6.28
2017-09-04T06:51:47.803Z,17.51
2017-09-04T07:26:48.623Z,15.03
2017-09-04T07:46:49.206Z,0.00
2017-09-04T08:06:49.737Z,0.00
2017-09-04T08:26:50.283Z,0.00
2017-09-04T08:46:50.836Z,0.00
2017-09-04T09:06:51.190Z,0.02
2017-09-04T09:26:51.656Z,0.05
2017-09-04T09:46:52.165Z,0.03
2017-09-04T10:06:52.731Z,0.06
2017-09-04T10:26:53.209Z,0.05
2017-09-04T10:46:53.748Z,0.02
2017-09-04T11:06:54.196Z,1.30
2017-09-04T11:26:54.634Z,21.90
2017-09-04T11:46:55.113Z,8.01
2017-09-04T12:06:55.654Z,17.21
2017-09-04T12:26:56.114Z,10.78
2017-09-04T12:46:56.595Z,7.99
2017-09-04T13:06:57.182Z,0.96
2017-09-04T13:26:57.625Z,24.73
2017-09-04T13:46:58.108Z,30.05
2017-09-04T14:06:58.496Z,3.41
2017-09-04T14:26:59.053Z,1.25
2017-09-04T15:01:59.922Z,39.44
2017-09-04T15:22:00.294Z,5.61
2017-09-04T15:42:00.792Z,12.96
2017-09-04T16:02:01.228Z,26.77
2017-09-04T16:22:01.687Z,49.26
2017-09-04T16:42:02.223Z,99.84
2017-09-04T17:02:02.706Z,99.79
2017-09-04T17:22:03.202Z,97.82
2017-09-04T17:42:03.717Z,97.11
2017-09-04T18:02:04.204Z,69.94
2017-09-04T18:22:04.829Z,78.21
2017-09-04T18:42:49.796Z,39.56
2017-09-04T19:02:50.210Z,94.50
2017-09-04T19:22:50.658Z,53.51
2017-09-04T19:42:51.197Z,43.57
2017-09-04T20:02:51.647Z,65.20
2017-09-04T20:22:52.172Z,61.20
2017-09-04T20:42:52.592Z,38.36
2017-09-04T21:02:53.031Z,38.46
2017-09-04T21:22:53.503Z,38.81
2017-09-04T21:42:54.015Z,29.19
2017-09-04T22:02:54.492Z,20.61
2017-09-04T22:22:54.939Z,22.00
2017-09-04T22:42:55.455Z,20.36
2017-09-04T23:02:55.906Z,34.72
2017-09-04T23:22:56.387Z,30.63
2017-09-04T23:42:56.832Z,23.45
